Time;durP1;ratioP1;P1;durP2;ratioP2;P2;SDS_P1;SDS_P2;PMS_P1;PMS_P2;Temp;Humidity;BMP_temperature;BMP_pressure;BME280_temperature;BME280_humidity;BME280_pressure;Samples;Min_cycle;Max_cycle;Signal;HPM_P1;HPM_P2
2021/09/22 00:02:16;;;;;;;15.45;3.30;;;;;;;12.44;95.94;102409.19;4906935;29;20180;-56
2021/09/22 00:04:42;;;;;;;13.55;3.47;;;;;;;12.43;95.18;102406.72;4907782;29;20047;-56
2021/09/22 00:07:07;;;;;;;16.63;3.55;;;;;;;12.46;95.08;102403.59;4902648;29;20024;-56
2021/09/22 00:09:33;;;;;;;11.98;3.10;;;;;;;12.50;94.28;102402.09;4903148;29;20120;-53
2021/09/22 00:11:59;;;;;;;17.67;3.40;;;;;;;12.39;94.93;102409.03;4903776;29;20043;-56
2021/09/22 00:14:25;;;;;;;16.08;3.47;;;;;;;12.37;94.81;102400.31;4903097;29;21469;-53
2021/09/22 00:16:50;;;;;;;13.82;3.28;;;;;;;12.38;94.11;102402.78;4908125;29;20036;-55
2021/09/22 00:19:16;;;;;;;16.13;3.13;;;;;;;12.20;94.11;102402.72;4901541;29;20033;-53
2021/09/22 00:21:41;;;;;;;14.75;3.25;;;;;;;12.14;94.68;102400.09;4906256;29;20043;-52
2021/09/22 00:24:07;;;;;;;12.52;2.75;;;;;;;12.14;94.42;102400.94;4905383;29;20155;-54
2021/09/22 00:26:33;;;;;;;12.98;2.90;;;;;;;12.01;94.66;102395.63;4904184;29;20024;-52
2021/09/22 00:28:59;;;;;;;20.20;3.58;;;;;;;11.99;94.69;102390.50;4902648;29;20032;-56
2021/09/22 00:31:24;;;;;;;12.27;3.22;;;;;;;12.00;94.51;102394.81;4903424;29;20119;-56
2021/09/22 00:33:50;;;;;;;13.10;2.95;;;;;;;11.92;94.68;102399.66;4899091;29;20143;-56
2021/09/22 00:36:16;;;;;;;13.90;2.95;;;;;;;11.82;94.85;102399.28;4902928;29;20032;-53
2021/09/22 00:38:42;;;;;;;15.52;2.70;;;;;;;11.89;94.33;102394.72;4905399;29;20095;-55
2021/09/22 00:41:08;;;;;;;18.35;3.00;;;;;;;11.93;93.88;102395.91;4898517;29;20032;-54
2021/09/22 00:43:33;;;;;;;14.45;2.92;;;;;;;11.82;93.87;102393.91;4900591;29;20032;-55
2021/09/22 00:46:04;;;;;;;15.40;3.45;;;;;;;11.83;93.53;102391.00;4901430;29;20035;-55
2021/09/22 00:48:32;;;;;;;15.93;3.25;;;;;;;11.75;94.05;102389.38;4902581;29;20024;-56
2021/09/22 00:50:59;;;;;;;12.30;2.78;;;;;;;11.76;93.77;102390.22;4903733;29;20039;-53
2021/09/22 00:53:25;;;;;;;22.83;3.25;;;;;;;11.75;93.52;102393.94;4904443;29;20036;-55
2021/09/22 00:55:51;;;;;;;12.45;2.72;;;;;;;11.69;93.72;102397.50;4902399;29;20040;-52
2021/09/22 00:58:17;;;;;;;19.20;3.38;;;;;;;11.76;93.34;102396.41;4904216;29;20032;-55
2021/09/22 01:00:42;;;;;;;16.80;3.20;;;;;;;11.86;92.89;102404.03;4904732;29;20032;-56
2021/09/22 01:03:08;;;;;;;17.27;3.13;;;;;;;11.91;92.41;102403.38;4903120;29;20404;-53
2021/09/22 01:05:34;;;;;;;14.65;3.30;;;;;;;11.85;92.46;102402.38;4905618;29;20391;-54
2021/09/22 01:08:00;;;;;;;12.35;2.63;;;;;;;11.83;92.36;102400.94;4902093;29;20107;-55
2021/09/22 01:10:26;;;;;;;18.55;2.97;;;;;;;11.80;92.28;102402.19;4905726;29;20192;-52
2021/09/22 01:12:52;;;;;;;14.43;3.25;;;;;;;11.72;92.49;102410.47;4903529;29;20040;-54
2021/09/22 01:15:30;;;;;;;17.35;3.10;;;;;;;11.86;91.70;102411.25;4903126;29;20020;-56
2021/09/22 01:17:57;;;;;;;18.77;3.42;;;;;;;11.83;91.59;102412.50;4903655;29;20498;-55
2021/09/22 01:20:23;;;;;;;22.95;3.08;;;;;;;11.72;92.12;102405.94;4907674;29;20196;-52
2021/09/22 01:22:48;;;;;;;12.13;2.92;;;;;;;11.67;92.07;102412.97;4899140;29;20515;-55
2021/09/22 01:25:14;;;;;;;14.10;2.60;;;;;;;11.64;91.80;102414.22;4900729;29;20054;-52
2021/09/22 01:27:52;;;;;;;15.20;2.40;;;;;;;11.54;92.33;102413.88;4905142;29;20031;-52
2021/09/22 01:30:18;;;;;;;14.43;3.08;;;;;;;11.55;92.37;102418.19;4900845;29;20111;-53
2021/09/22 01:32:49;;;;;;;21.98;3.60;;;;;;;11.42;92.78;102418.25;4901719;29;20047;-55
2021/09/22 01:35:15;;;;;;;20.25;3.67;;;;;;;11.50;92.09;102412.66;4900592;29;20028;-54
2021/09/22 01:37:41;;;;;;;18.08;2.85;;;;;;;11.41;92.24;102414.75;4900965;29;20043;-54
2021/09/22 01:40:07;;;;;;;18.33;3.60;;;;;;;11.38;93.11;102419.72;4906916;29;20391;-52
2021/09/22 01:42:33;;;;;;;17.50;4.53;;;;;;;11.31;93.16;102418.91;4919550;29;20619;-53
2021/09/22 01:45:04;;;;;;;22.60;3.58;;;;;;;11.37;92.61;102412.72;4904962;29;20032;-55
2021/09/22 01:47:29;;;;;;;16.40;3.97;;;;;;;11.35;92.81;102420.16;4906024;29;20032;-54
2021/09/22 01:50:16;;;;;;;25.05;3.35;;;;;;;11.31;93.10;102421.59;4906104;29;20028;-53
2021/09/22 01:52:43;;;;;;;20.65;3.55;;;;;;;11.31;93.58;102414.41;4904315;29;20099;-54
2021/09/22 01:55:10;;;;;;;20.80;3.53;;;;;;;11.31;93.18;102418.91;4914998;29;20039;-55
2021/09/22 01:57:35;;;;;;;13.50;3.30;;;;;;;11.36;92.78;102422.63;4902485;29;20574;-52
2021/09/22 02:00:01;;;;;;;20.38;3.50;;;;;;;11.34;93.44;102422.00;4899139;29;20164;-52
2021/09/22 02:02:28;;;;;;;15.63;3.17;;;;;;;11.40;93.15;102420.34;4906309;29;20058;-53
2021/09/22 02:04:54;;;;;;;23.80;3.40;;;;;;;11.46;93.47;102411.41;4903756;29;21360;-52
2021/09/22 02:07:19;;;;;;;15.13;3.10;;;;;;;11.54;92.68;102418.41;4898333;29;20051;-52
2021/09/22 02:09:45;;;;;;;18.35;3.58;;;;;;;11.54;92.56;102421.94;4903940;29;20039;-56
2021/09/22 02:12:10;;;;;;;21.05;3.67;;;;;;;11.52;92.84;102415.94;4903812;29;20098;-53
2021/09/22 02:14:36;;;;;;;19.75;3.65;;;;;;;11.48;92.70;102415.53;4901326;29;20122;-52
2021/09/22 02:17:02;;;;;;;18.65;2.92;;;;;;;11.50;92.75;102413.47;4903904;29;20040;-54
2021/09/22 02:19:29;;;;;;;21.52;3.67;;;;;;;11.47;92.69;102419.25;4908673;29;20035;-54
2021/09/22 02:21:55;;;;;;;18.00;3.85;;;;;;;11.46;92.63;102424.84;4903372;29;20039;-52
2021/09/22 02:24:20;;;;;;;18.83;3.22;;;;;;;11.44;92.82;102426.91;4901809;29;20028;-52
2021/09/22 02:26:46;;;;;;;21.48;3.47;;;;;;;11.45;92.87;102423.19;4902564;29;20028;-55
2021/09/22 02:29:12;;;;;;;14.95;3.03;;;;;;;11.47;92.47;102421.94;4901854;29;20039;-56
2021/09/22 02:31:38;;;;;;;17.40;3.47;;;;;;;11.42;92.79;102429.00;4913056;29;20560;-55
2021/09/22 02:34:04;;;;;;;14.57;3.25;;;;;;;11.36;93.27;102428.00;4905994;29;20043;-53
2021/09/22 02:36:29;;;;;;;19.10;3.38;;;;;;;11.38;93.50;102435.81;4899242;29;20060;-54
2021/09/22 02:38:55;;;;;;;19.90;3.92;;;;;;;11.40;93.23;102431.88;4906077;29;20097;-52
2021/09/22 02:41:20;;;;;;;16.65;3.00;;;;;;;11.40;92.89;102436.44;4898229;29;20032;-54
2021/09/22 02:43:46;;;;;;;23.67;4.25;;;;;;;11.32;93.67;102437.50;4902753;29;20032;-53
2021/09/22 02:46:11;;;;;;;18.08;3.20;;;;;;;11.37;93.46;102440.38;4897566;29;20039;-56
2021/09/22 02:48:37;;;;;;;15.07;3.58;;;;;;;11.45;93.08;102439.28;4898913;29;20034;-54
2021/09/22 02:51:03;;;;;;;20.13;3.40;;;;;;;11.49;92.74;102440.53;4900296;29;20287;-55
2021/09/22 02:53:30;;;;;;;27.33;4.95;;;;;;;11.45;92.72;102436.59;4905222;29;20378;-53
2021/09/22 02:55:56;;;;;;;22.38;4.00;;;;;;;11.36;93.03;102438.72;4899558;29;20503;-52
2021/09/22 02:58:22;;;;;;;24.33;3.75;;;;;;;11.31;93.08;102435.00;4898843;29;20040;-52
2021/09/22 03:00:48;;;;;;;19.63;3.55;;;;;;;11.25;93.66;102434.00;4897290;29;20039;-52
2021/09/22 03:03:15;;;;;;;16.70;3.85;;;;;;;11.22;94.06;102433.59;4899144;29;20561;-52
2021/09/22 03:05:41;;;;;;;19.50;4.50;;;;;;;11.24;93.74;102450.31;4901578;29;20036;-55
2021/09/22 03:08:07;;;;;;;19.25;4.22;;;;;;;11.20;94.33;102450.75;4901728;29;20035;-55
2021/09/22 03:10:33;;;;;;;22.92;3.78;;;;;;;11.13;94.77;102458.00;4902897;29;20028;-53
2021/09/22 03:12:58;;;;;;;17.77;3.92;;;;;;;11.10;94.62;102455.69;4905881;29;20036;-54
2021/09/22 03:15:24;;;;;;;17.95;3.75;;;;;;;11.10;94.37;102447.66;4901692;29;20120;-53
2021/09/22 03:17:50;;;;;;;30.73;3.70;;;;;;;11.04;94.50;102463.78;4900418;29;20070;-55
2021/09/22 03:20:16;;;;;;;26.35;4.78;;;;;;;11.02;94.66;102472.03;4897527;29;20122;-55
2021/09/22 03:22:42;;;;;;;22.30;3.90;;;;;;;10.96;94.42;102464.84;4900727;29;20029;-52
2021/09/22 03:25:09;;;;;;;22.95;3.70;;;;;;;10.90;94.62;102468.31;4898197;29;20034;-54
2021/09/22 03:27:35;;;;;;;29.73;4.18;;;;;;;10.90;94.65;102468.31;4902963;29;20029;-54
2021/09/22 03:30:00;;;;;;;26.27;4.28;;;;;;;10.89;94.58;102464.00;4899214;29;20039;-55
2021/09/22 03:32:26;;;;;;;26.25;4.43;;;;;;;10.81;95.04;102461.53;4902737;29;20031;-52
2021/09/22 03:34:52;;;;;;;22.90;4.22;;;;;;;10.71;96.47;102466.50;4901054;29;20484;-53
2021/09/22 03:37:17;;;;;;;19.67;3.70;;;;;;;10.77;95.52;102479.06;4906166;29;20169;-52
2021/09/22 03:39:43;;;;;;;20.40;3.97;;;;;;;10.76;95.30;102464.00;4903570;29;20526;-55
2021/09/22 03:42:09;;;;;;;20.95;3.60;;;;;;;10.75;95.31;102479.25;4902920;29;20527;-53
2021/09/22 03:44:34;;;;;;;24.42;4.60;;;;;;;10.69;95.37;102480.09;4904753;29;20111;-52
2021/09/22 03:47:01;;;;;;;22.80;4.00;;;;;;;10.68;95.13;102483.81;4902572;29;20031;-54
2021/09/22 03:49:27;;;;;;;24.38;3.95;;;;;;;10.58;96.67;102486.88;4900450;29;20035;-54
2021/09/22 03:51:52;;;;;;;22.55;3.75;;;;;;;10.69;95.61;102492.69;4900198;29;20029;-54
2021/09/22 03:54:18;;;;;;;28.65;4.32;;;;;;;10.64;96.16;102490.63;4905453;29;20032;-53
2021/09/22 03:56:44;;;;;;;30.70;4.68;;;;;;;10.58;96.12;102496.78;4903308;29;20036;-56
2021/09/22 03:59:09;;;;;;;24.88;4.55;;;;;;;10.58;96.23;102494.94;4901967;29;20039;-55
2021/09/22 04:01:35;;;;;;;20.95;3.45;;;;;;;10.48;97.28;102497.22;4907220;29;20491;-52
2021/09/22 04:04:00;;;;;;;30.05;4.45;;;;;;;10.43;97.51;102505.03;4904078;29;20265;-55
2021/09/22 04:06:26;;;;;;;17.55;3.97;;;;;;;10.47;96.55;102508.13;4904293;29;20526;-54
2021/09/22 04:08:52;;;;;;;20.92;3.95;;;;;;;10.48;97.09;102501.75;4907542;29;20461;-54
2021/09/22 04:11:17;;;;;;;25.02;5.22;;;;;;;10.49;96.78;102506.91;4907482;29;20051;-52
2021/09/22 04:13:43;;;;;;;21.83;4.35;;;;;;;10.49;96.97;102511.44;4903033;29;20037;-52
2021/09/22 04:16:10;;;;;;;24.13;4.32;;;;;;;10.46;96.93;102506.50;4907630;29;20124;-56
2021/09/22 04:18:36;;;;;;;18.98;4.03;;;;;;;10.47;96.72;102508.97;4908399;29;20031;-54
2021/09/22 04:21:02;;;;;;;18.95;3.60;;;;;;;10.47;96.92;102516.19;4905265;29;20028;-54
2021/09/22 04:23:28;;;;;;;24.83;4.25;;;;;;;10.50;96.94;102513.91;4905458;29;20028;-53
2021/09/22 04:25:54;;;;;;;24.73;4.18;;;;;;;10.44;97.41;102514.72;4901923;29;20036;-53
2021/09/22 04:28:20;;;;;;;22.02;4.57;;;;;;;10.39;97.90;102511.81;4900384;29;20403;-54
2021/09/22 04:30:46;;;;;;;22.55;4.00;;;;;;;10.44;97.15;102513.91;4902341;29;20112;-52
2021/09/22 04:33:12;;;;;;;29.15;4.55;;;;;;;10.44;97.10;102514.72;4903191;29;20114;-53
2021/09/22 04:35:37;;;;;;;21.08;4.13;;;;;;;10.37;98.48;102521.09;4903655;29;20059;-53
2021/09/22 04:38:05;;;;;;;25.30;4.65;;;;;;;10.40;97.64;102513.47;4905496;29;20441;-55
2021/09/22 04:40:31;;;;;;;24.17;4.05;;;;;;;10.41;97.41;102520.50;4903120;29;20028;-54
2021/09/22 04:42:58;;;;;;;18.60;3.67;;;;;;;10.40;97.19;102524.19;4917263;29;20028;-52
2021/09/22 04:45:25;;;;;;;27.52;4.18;;;;;;;10.35;96.92;102520.47;4904350;29;20025;-52
2021/09/22 04:47:52;;;;;;;18.25;4.32;;;;;;;10.29;97.12;102522.13;4907393;29;20052;-55
2021/09/22 04:50:18;;;;;;;29.30;4.60;;;;;;;10.19;96.97;102522.47;4904748;29;20029;-55
2021/09/22 04:52:44;;;;;;;21.77;4.60;;;;;;;10.19;97.27;102529.66;4906971;29;20032;-55
2021/09/22 04:55:09;;;;;;;23.90;4.30;;;;;;;10.24;97.35;102543.34;4904257;29;20051;-56
2021/09/22 04:57:35;;;;;;;22.17;4.65;;;;;;;10.23;97.85;102538.97;4901576;29;20024;-52
2021/09/22 05:00:01;;;;;;;15.57;4.00;;;;;;;10.19;98.84;102559.97;4902195;29;20169;-56
2021/09/22 05:02:26;;;;;;;23.02;4.85;;;;;;;10.25;98.21;102553.84;4903815;29;20123;-53
2021/09/22 05:04:52;;;;;;;20.70;4.55;;;;;;;10.35;98.12;102557.97;4901390;29;20218;-55
2021/09/22 05:07:17;;;;;;;23.13;4.18;;;;;;;10.42;97.71;102559.66;4903207;29;20110;-54
2021/09/22 05:09:43;;;;;;;25.77;4.53;;;;;;;10.50;97.73;102558.66;4901633;29;20062;-54
2021/09/22 05:12:09;;;;;;;25.92;5.07;;;;;;;10.58;97.66;102566.47;4902608;29;20056;-53
2021/09/22 05:14:34;;;;;;;23.70;3.88;;;;;;;10.75;97.26;102561.56;4901934;29;20036;-54
2021/09/22 05:17:00;;;;;;;16.77;3.65;;;;;;;10.87;96.87;102573.31;4892234;29;20032;-56
2021/09/22 05:19:26;;;;;;;19.90;4.53;;;;;;;10.93;96.97;102575.19;4899657;29;20039;-55
2021/09/22 05:21:52;;;;;;;26.02;4.70;;;;;;;11.01;96.77;102580.34;4901115;29;20059;-54
2021/09/22 05:24:18;;;;;;;22.13;3.80;;;;;;;11.07;96.25;102576.00;4902251;29;20443;-52
2021/09/22 05:26:44;;;;;;;22.17;4.38;;;;;;;11.17;95.65;102571.06;4898095;29;20184;-53
2021/09/22 05:29:10;;;;;;;18.25;3.75;;;;;;;11.23;95.34;102567.53;4896626;29;20511;-55
2021/09/22 05:31:35;;;;;;;24.95;4.32;;;;;;;11.35;94.83;102579.31;4898114;29;20029;-55
2021/09/22 05:34:01;;;;;;;20.90;3.95;;;;;;;11.44;95.04;102579.91;4897468;29;20024;-55
2021/09/22 05:36:26;;;;;;;13.75;3.80;;;;;;;11.53;94.14;102581.34;4898940;29;20028;-53
2021/09/22 05:38:52;;;;;;;25.70;4.97;;;;;;;11.61;93.42;102582.97;4898138;29;20477;-54
2021/09/22 05:41:17;;;;;;;19.67;3.92;;;;;;;11.53;93.82;102589.41;4900415;29;20483;-52
2021/09/22 05:43:43;;;;;;;22.10;3.15;;;;;;;11.54;93.60;102584.84;4898090;29;20038;-52
2021/09/22 05:46:09;;;;;;;19.42;3.45;;;;;;;11.64;93.23;102596.78;4898276;29;20068;-53
2021/09/22 05:48:34;;;;;;;27.92;5.20;;;;;;;11.65;93.18;102593.06;4899949;29;20433;-52
2021/09/22 05:51:00;;;;;;;21.00;3.70;;;;;;;11.65;93.26;102590.38;4897257;29;20084;-56
2021/09/22 05:53:25;;;;;;;24.67;3.80;;;;;;;11.69;93.18;102588.94;4898040;29;20114;-55
2021/09/22 05:55:51;;;;;;;25.08;5.18;;;;;;;11.79;92.38;102591.22;4898396;29;20032;-55
2021/09/22 05:58:19;;;;;;;19.02;4.32;;;;;;;11.86;92.30;102583.97;4899021;29;20087;-52
2021/09/22 06:00:46;;;;;;;21.95;3.70;;;;;;;11.74;92.58;102586.44;4897900;29;20029;-53
2021/09/22 06:03:12;;;;;;;22.27;4.32;;;;;;;11.81;92.55;102589.13;4898096;29;20538;-53
2021/09/22 06:05:39;;;;;;;22.75;3.95;;;;;;;11.88;91.76;102595.34;4898112;29;20032;-54
2021/09/22 06:08:08;;;;;;;21.77;3.80;;;;;;;11.93;91.74;102590.13;4900504;29;20034;-52
2021/09/22 06:10:35;;;;;;;21.55;4.40;;;;;;;11.92;91.73;102599.22;4900573;29;20021;-54
2021/09/22 06:13:01;;;;;;;19.23;3.55;;;;;;;12.02;91.47;102601.47;4897593;29;20061;-56
2021/09/22 06:15:27;;;;;;;23.95;4.35;;;;;;;12.09;91.18;102603.09;4899138;29;20532;-55
2021/09/22 06:17:53;;;;;;;24.75;3.90;;;;;;;12.12;91.16;102601.03;4899633;29;20035;-56
2021/09/22 06:20:19;;;;;;;19.15;3.42;;;;;;;12.17;90.78;102602.03;4899650;29;20085;-52
2021/09/22 06:22:44;;;;;;;24.55;4.63;;;;;;;12.25;90.71;102600.97;4897551;29;20396;-56
2021/09/22 06:25:11;;;;;;;21.23;4.32;;;;;;;12.29;90.68;102604.88;4897613;29;20650;-52
2021/09/22 06:27:36;;;;;;;29.55;4.95;;;;;;;12.34;90.66;102608.56;4896669;29;20032;-55
2021/09/22 06:30:03;;;;;;;22.75;3.65;;;;;;;12.46;89.91;102602.50;4896738;29;20076;-53
2021/09/22 06:32:29;;;;;;;17.52;4.07;;;;;;;12.54;89.40;102599.56;4897025;29;20043;-53
2021/09/22 06:34:55;;;;;;;25.25;4.63;;;;;;;12.32;90.68;102601.75;4900338;29;20032;-55
2021/09/22 06:37:20;;;;;;;20.15;3.97;;;;;;;12.53;89.80;102608.66;4898358;29;20416;-52
2021/09/22 06:39:46;;;;;;;21.55;3.88;;;;;;;12.61;89.71;102613.81;4897282;29;20428;-53
2021/09/22 06:42:11;;;;;;;16.75;4.60;;;;;;;12.51;90.03;102613.44;4900221;29;20043;-54
2021/09/22 06:44:37;;;;;;;25.45;4.32;;;;;;;12.60;89.67;102614.84;4896964;29;20032;-54
2021/09/22 06:47:04;;;;;;;32.15;4.85;;;;;;;12.64;89.58;102624.13;4896996;29;20035;-52
2021/09/22 06:49:30;;;;;;;18.58;3.83;;;;;;;12.71;89.37;102627.59;4896300;29;20051;-54
2021/09/22 06:51:56;;;;;;;26.73;4.95;;;;;;;12.64;89.53;102627.63;4899263;29;20440;-52
2021/09/22 06:54:22;;;;;;;31.45;4.80;;;;;;;12.78;89.65;102635.63;4896998;29;20114;-53
2021/09/22 06:56:47;;;;;;;22.08;4.32;;;;;;;12.92;88.76;102629.94;4896515;29;20567;-53
2021/09/22 06:59:13;;;;;;;18.80;4.70;;;;;;;12.92;88.83;102629.94;4896978;29;20035;-53
2021/09/22 07:01:42;;;;;;;26.52;5.47;;;;;;;13.06;88.95;102629.84;4896720;29;20092;-54
2021/09/22 07:04:08;;;;;;;18.02;4.53;;;;;;;13.05;89.23;102626.31;4897483;29;20072;-52
2021/09/22 07:06:34;;;;;;;18.50;3.78;;;;;;;13.32;88.07;102629.66;4899523;29;20444;-52
2021/09/22 07:09:00;;;;;;;21.13;3.95;;;;;;;13.51;86.94;102634.06;4896279;29;20032;-54
2021/09/22 07:11:25;;;;;;;18.70;4.13;;;;;;;13.53;86.61;102634.66;4897342;29;20778;-52
2021/09/22 07:13:51;;;;;;;17.50;3.92;;;;;;;13.51;86.72;102639.44;4896894;29;20403;-55
2021/09/22 07:16:17;;;;;;;15.60;4.40;;;;;;;13.61;86.63;102637.03;4899137;29;20400;-54
2021/09/22 07:18:44;;;;;;;22.08;4.20;;;;;;;13.84;85.80;102640.97;4898515;29;20047;-53
2021/09/22 07:21:10;;;;;;;19.60;4.43;;;;;;;13.81;85.20;102630.63;4896547;29;20156;-54
2021/09/22 07:23:37;;;;;;;19.92;4.07;;;;;;;13.73;86.17;102641.72;4896362;29;20501;-53
2021/09/22 07:26:03;;;;;;;24.08;4.15;;;;;;;13.87;85.48;102644.03;4895839;29;20268;-54
2021/09/22 07:28:30;;;;;;;22.15;4.20;;;;;;;14.04;84.76;102638.06;4897075;29;20082;-55
2021/09/22 07:30:56;;;;;;;14.63;4.07;;;;;;;14.12;84.07;102638.56;4897728;29;20393;-56
2021/09/22 07:33:22;;;;;;;16.80;3.55;;;;;;;14.21;83.53;102634.53;4896919;29;20118;-53
2021/09/22 07:35:48;;;;;;;19.95;3.90;;;;;;;14.06;83.95;102644.06;4897022;29;20455;-52
2021/09/22 07:38:14;;;;;;;21.50;4.30;;;;;;;13.99;84.06;102633.31;4896655;29;20036;-53
2021/09/22 07:40:40;;;;;;;29.63;4.68;;;;;;;14.15;83.62;102631.91;4896240;29;20044;-53
2021/09/22 07:43:05;;;;;;;26.52;4.65;;;;;;;14.33;83.12;102641.84;4896522;29;20028;-57
2021/09/22 07:45:33;;;;;;;21.27;4.05;;;;;;;14.31;82.70;102646.63;4897248;29;20059;-56
2021/09/22 07:47:59;;;;;;;17.55;4.00;;;;;;;14.46;82.80;102642.53;4897520;29;20477;-52
2021/09/22 07:50:25;;;;;;;15.48;3.45;;;;;;;14.57;82.18;102646.34;4896042;29;20055;-53
2021/09/22 07:52:50;;;;;;;21.60;4.18;;;;;;;14.66;81.82;102644.94;4896153;29;20027;-55
2021/09/22 07:55:16;;;;;;;21.67;4.25;;;;;;;14.83;81.05;102645.13;4899568;29;20039;-52
2021/09/22 07:57:42;;;;;;;23.42;4.13;;;;;;;14.67;81.62;102651.16;4896314;29;20048;-55
2021/09/22 08:00:10;;;;;;;21.52;3.80;;;;;;;14.59;80.98;102652.31;4895718;29;20531;-55
2021/09/22 08:02:36;;;;;;;14.60;3.53;;;;;;;14.71;81.44;102657.75;4900183;29;20243;-52
2021/09/22 08:05:03;;;;;;;19.65;4.22;;;;;;;14.78;81.03;102647.69;4896517;29;20032;-55
2021/09/22 08:07:28;;;;;;;17.33;3.42;;;;;;;14.78;80.59;102648.53;4896369;29;20260;-55
2021/09/22 08:09:54;;;;;;;18.10;3.92;;;;;;;14.75;80.94;102648.16;4896046;29;20100;-52
2021/09/22 08:12:20;;;;;;;20.98;4.45;;;;;;;14.76;80.27;102650.63;4897986;29;20523;-53
2021/09/22 08:14:45;;;;;;;18.00;3.78;;;;;;;14.88;80.02;102658.75;4896343;29;20028;-53
2021/09/22 08:17:14;;;;;;;16.58;3.95;;;;;;;14.98;79.82;102655.50;4899502;29;20410;-52
2021/09/22 08:19:40;;;;;;;24.45;4.15;;;;;;;14.81;80.12;102653.47;4897507;29;20028;-53
2021/09/22 08:22:07;;;;;;;16.02;3.80;;;;;;;15.14;79.33;102662.09;4899324;29;20028;-55
2021/09/22 08:24:33;;;;;;;16.33;4.00;;;;;;;15.41;78.36;102663.31;4901849;29;20036;-53
2021/09/22 08:26:59;;;;;;;14.95;3.35;;;;;;;15.53;77.65;102666.03;4899888;29;20035;-53
2021/09/22 08:29:25;;;;;;;12.77;3.78;;;;;;;15.72;77.06;102673.00;4898656;29;20402;-52
2021/09/22 08:31:51;;;;;;;18.58;3.53;;;;;;;15.68;76.74;102661.00;4901901;29;20031;-57
2021/09/22 08:34:20;;;;;;;19.08;4.68;;;;;;;15.82;76.12;102672.41;4900486;29;20024;-53
2021/09/22 08:36:46;;;;;;;23.00;3.75;;;;;;;15.83;75.47;102672.16;4899434;29;20539;-53
2021/09/22 08:39:13;;;;;;;18.23;3.75;;;;;;;15.88;75.12;102669.56;4899252;29;20102;-53
2021/09/22 08:41:39;;;;;;;15.70;3.38;;;;;;;16.07;74.70;102672.94;4899990;29;20039;-53
2021/09/22 08:44:05;;;;;;;17.33;3.97;;;;;;;15.91;74.88;102663.69;4899467;29;20391;-54
2021/09/22 08:46:32;;;;;;;14.38;3.38;;;;;;;16.14;74.59;102668.22;4899655;29;20031;-54
2021/09/22 08:49:03;;;;;;;18.95;3.40;;;;;;;16.31;73.74;102662.91;4898267;29;20596;-54
2021/09/22 08:51:30;;;;;;;16.92;3.78;;;;;;;16.26;73.65;102658.22;4899585;29;20044;-54
2021/09/22 08:53:56;;;;;;;19.48;4.15;;;;;;;16.41;73.69;102663.09;4901357;29;20052;-55
2021/09/22 08:56:22;;;;;;;14.65;3.35;;;;;;;16.46;73.85;102662.38;4899718;29;20422;-54
2021/09/22 08:58:48;;;;;;;13.82;2.75;;;;;;;16.17;74.06;102672.38;4898710;29;20159;-53
2021/09/22 09:01:16;;;;;;;14.85;3.40;;;;;;;16.37;73.68;102669.25;4901707;29;20028;-52
2021/09/22 09:03:43;;;;;;;13.40;3.72;;;;;;;16.58;72.95;102666.69;4899305;29;20028;-54
2021/09/22 09:06:34;;;;;;;15.27;3.60;;;;;;;16.51;72.26;102673.28;4898954;29;20349;-54
2021/09/22 09:09:01;;;;;;;17.60;3.85;;;;;;;16.28;73.73;102676.91;4900177;29;20036;-54
2021/09/22 09:11:30;;;;;;;16.48;3.55;;;;;;;15.81;73.98;102673.47;4899802;29;20410;-54
2021/09/22 09:13:58;;;;;;;18.98;3.38;;;;;;;15.96;74.16;102673.78;4901376;29;20024;-54
2021/09/22 09:16:31;;;;;;;19.50;3.83;;;;;;;15.92;74.73;102672.63;4898337;29;20043;-54
2021/09/22 09:18:57;;;;;;;21.35;4.00;;;;;;;16.07;74.48;102666.72;4901110;29;20527;-52
2021/09/22 09:21:23;;;;;;;18.30;4.22;;;;;;;16.16;74.52;102659.91;4899312;29;20038;-53
2021/09/22 09:23:51;;;;;;;16.58;3.45;;;;;;;16.17;72.76;102672.38;4898513;29;21567;-54
2021/09/22 09:26:21;;;;;;;12.80;2.83;;;;;;;16.41;73.15;102673.09;4899480;29;20087;-53
2021/09/22 09:28:58;;;;;;;11.90;3.22;;;;;;;16.37;72.27;102672.78;4899255;29;20043;-52
2021/09/22 09:31:31;;;;;;;15.05;3.33;;;;;;;16.13;71.93;102671.16;4906853;29;20032;-52
2021/09/22 09:33:58;;;;;;;15.32;3.20;;;;;;;16.15;72.08;102672.56;4900792;29;20119;-52
2021/09/22 09:36:32;;;;;;;14.50;2.80;;;;;;;16.13;73.30;102672.00;4900272;29;20405;-53
2021/09/22 09:38:57;;;;;;;16.92;3.60;;;;;;;16.13;73.37;102681.97;4898063;29;20028;-55
2021/09/22 09:41:35;;;;;;;16.08;3.50;;;;;;;16.20;73.19;102685.41;4898301;29;20379;-54
2021/09/22 09:44:03;;;;;;;16.40;3.55;;;;;;;16.03;73.65;102679.91;4898908;29;20491;-55
2021/09/22 09:46:29;;;;;;;19.05;3.60;;;;;;;16.00;74.21;102680.38;4898219;29;20032;-56
2021/09/22 09:49:00;;;;;;;15.23;3.17;;;;;;;16.00;73.85;102683.91;4898476;29;20028;-53
2021/09/22 09:51:38;;;;;;;20.88;3.42;;;;;;;15.58;74.97;102675.06;4898343;29;21526;-53
2021/09/22 09:54:13;;;;;;;16.25;3.95;;;;;;;15.53;75.58;102666.84;4901035;29;20242;-54
2021/09/22 09:56:39;;;;;;;16.30;3.67;;;;;;;15.69;75.38;102676.16;4898168;29;20056;-53
2021/09/22 09:59:05;;;;;;;18.70;3.90;;;;;;;15.72;75.25;102675.69;4898164;29;20051;-54
2021/09/22 10:01:40;;;;;;;14.88;3.42;;;;;;;15.96;74.53;102669.19;4898286;29;20028;-54
2021/09/22 10:04:06;;;;;;;;;;;;;;;15.79;74.40;102672.84;4898586;29;20028;-55
2021/09/22 10:06:32;;;;;;;18.05;3.80;;;;;;;15.81;74.44;102671.59;4898100;29;19915;-53
2021/09/22 10:08:57;;;;;;;15.63;3.40;;;;;;;16.12;73.17;102673.06;4902217;29;20024;-55
2021/09/22 10:11:24;;;;;;;16.65;4.00;;;;;;;15.81;74.33;102668.06;4900375;29;20025;-54
2021/09/22 10:13:51;;;;;;;17.77;4.00;;;;;;;15.73;74.00;102671.94;4899761;29;20060;-56
2021/09/22 10:16:19;;;;;;;16.92;3.60;;;;;;;15.67;74.92;102684.50;4899890;29;20477;-52
2021/09/22 10:18:47;;;;;;;10.73;3.40;;;;;;;15.75;74.63;102679.78;4899105;29;20122;-56
2021/09/22 10:21:15;;;;;;;13.25;2.97;;;;;;;15.75;74.16;102680.63;4898759;29;20297;-56
2021/09/22 10:23:43;;;;;;;15.43;3.90;;;;;;;15.54;74.36;102673.06;4897031;29;20307;-53
2021/09/22 10:26:09;;;;;;;15.85;3.88;;;;;;;15.46;74.62;102686.94;4899847;29;20483;-53
2021/09/22 10:28:43;;;;;;;16.75;3.67;;;;;;;15.26;75.48;102677.28;4899101;29;20033;-52
2021/09/22 10:31:33;;;;;;;17.30;3.70;;;;;;;15.36;75.06;102671.28;4898087;29;20021;-53
2021/09/22 10:33:59;;;;;;;19.90;4.03;;;;;;;15.73;74.09;102666.53;4898673;29;20040;-55
2021/09/22 10:36:39;;;;;;;12.68;3.97;;;;;;;15.98;73.48;102672.50;4892904;29;20028;-54
2021/09/22 10:39:08;;;;;;;17.17;3.38;;;;;;;16.15;72.53;102677.16;4896790;29;20059;-55
2021/09/22 10:41:44;;;;;;;18.77;3.47;;;;;;;16.08;72.74;102668.38;4899719;29;20025;-55
2021/09/22 10:44:32;;;;;;;14.85;3.00;;;;;;;15.80;73.63;102667.25;4898858;29;20083;-56
2021/09/22 10:47:26;;;;;;;11.40;3.28;;;;;;;15.90;72.50;102656.63;4897125;29;20032;-53
2021/09/22 10:49:53;;;;;;;11.88;3.00;;;;;;;16.14;72.24;102645.78;4897954;29;20040;-55
2021/09/22 10:52:38;;;;;;;15.48;3.25;;;;;;;16.49;71.22;102649.19;4898494;29;20016;-53
2021/09/22 10:55:18;;;;;;;19.52;3.53;;;;;;;16.56;70.54;102654.47;4897586;29;20187;-54
2021/09/22 10:57:48;;;;;;;14.15;3.30;;;;;;;16.12;70.66;102647.91;4897325;29;20024;-53
2021/09/22 11:00:17;;;;;;;19.10;4.13;;;;;;;16.46;70.46;102655.09;4897611;29;20078;-53
2021/09/22 11:02:53;;;;;;;16.42;4.03;;;;;;;16.52;70.08;102642.50;4901970;29;20116;-52
2021/09/22 11:05:27;;;;;;;12.65;3.65;;;;;;;16.70;70.32;102649.63;4897181;29;20423;-56
2021/09/22 11:07:52;;;;;;;16.63;3.70;;;;;;;16.16;71.98;102644.50;4896598;29;20147;-56
2021/09/22 11:10:42;;;;;;;16.23;4.55;;;;;;;16.29;71.40;102652.31;4897477;29;20487;-54
2021/09/22 11:13:23;;;;;;;18.40;5.68;;;;;;;16.13;71.83;102653.06;4896922;29;20466;-56
2021/09/22 11:16:14;;;;;;;12.95;4.20;;;;;;;16.13;71.45;102654.94;4896500;29;20143;-53
2021/09/22 11:18:46;;;;;;;11.93;3.25;;;;;;;15.86;72.06;102646.53;4895827;29;20036;-55